createdAt,value
2018-01-14T00:02:00.188Z,5.60
2018-01-14T00:04:27.680Z,5.60
2018-01-14T00:06:55.527Z,5.61
2018-01-14T00:09:22.992Z,5.65
2018-01-14T00:11:51.807Z,5.67
2018-01-14T00:14:19.282Z,5.64
2018-01-14T00:16:46.825Z,5.62
2018-01-14T00:19:14.301Z,5.59
2018-01-14T00:21:41.757Z,5.62
2018-01-14T00:24:09.248Z,5.60
2018-01-14T00:26:36.761Z,5.60
2018-01-14T00:29:04.246Z,5.56
2018-01-14T00:31:31.710Z,5.58
2018-01-14T00:33:59.210Z,5.57
2018-01-14T00:36:26.707Z,5.57
2018-01-14T00:38:54.426Z,5.60
2018-01-14T00:41:21.902Z,5.61
2018-01-14T00:43:49.415Z,5.57
2018-01-14T00:46:16.898Z,5.52
2018-01-14T00:48:44.492Z,5.53
2018-01-14T00:51:12.325Z,5.55
2018-01-14T00:53:39.808Z,5.55
2018-01-14T00:56:07.299Z,5.56
2018-01-14T00:58:34.783Z,5.48
2018-01-14T01:01:02.262Z,5.46
2018-01-14T01:03:29.727Z,5.49
2018-01-14T01:05:57.219Z,5.49
2018-01-14T01:08:24.687Z,5.47
2018-01-14T01:10:52.191Z,5.50
2018-01-14T01:13:19.646Z,5.43
2018-01-14T01:15:47.162Z,5.41
2018-01-14T01:18:14.634Z,5.42
2018-01-14T01:20:42.338Z,5.45
2018-01-14T01:23:10.208Z,5.40
2018-01-14T01:25:37.675Z,5.33
2018-01-14T01:28:05.171Z,5.32
2018-01-14T01:30:33.461Z,5.26
2018-01-14T01:33:00.978Z,5.20
2018-01-14T01:35:28.474Z,5.20
2018-01-14T01:37:55.991Z,5.23
2018-01-14T01:40:23.495Z,5.22
2018-01-14T01:42:51.058Z,5.29
2018-01-14T01:45:18.583Z,5.28
2018-01-14T01:47:46.130Z,5.26
2018-01-14T01:50:13.643Z,5.26
2018-01-14T01:52:41.126Z,5.24
2018-01-14T01:55:08.627Z,5.24
2018-01-14T01:57:36.106Z,5.32
2018-01-14T02:00:03.616Z,5.29
2018-01-14T02:02:31.078Z,5.26
2018-01-14T02:04:58.598Z,5.25
2018-01-14T02:07:26.091Z,5.30
2018-01-14T02:09:53.582Z,5.26
2018-01-14T02:12:21.066Z,5.24
2018-01-14T02:14:48.706Z,5.23
2018-01-14T02:17:16.178Z,5.19
2018-01-14T02:19:43.643Z,5.19
2018-01-14T02:22:11.143Z,5.18
2018-01-14T02:24:38.839Z,5.17
2018-01-14T02:27:06.365Z,5.17
2018-01-14T02:29:33.868Z,5.12
2018-01-14T02:32:01.734Z,5.14
2018-01-14T02:34:29.223Z,5.18
2018-01-14T02:36:56.714Z,5.14
2018-01-14T02:39:24.199Z,5.12
2018-01-14T02:41:51.690Z,5.13
2018-01-14T02:44:19.167Z,5.17
2018-01-14T02:46:46.667Z,5.13
2018-01-14T02:49:14.144Z,5.12
2018-01-14T02:51:41.638Z,5.16
2018-01-14T02:54:09.149Z,5.14
2018-01-14T02:56:36.652Z,5.16
2018-01-14T02:59:04.500Z,5.11
2018-01-14T03:01:32.000Z,5.08
2018-01-14T03:03:59.526Z,5.09
2018-01-14T03:06:27.010Z,5.10
2018-01-14T03:08:54.527Z,5.09
2018-01-14T03:11:22.020Z,5.06
2018-01-14T03:13:49.506Z,5.09
2018-01-14T03:16:16.979Z,5.11
2018-01-14T03:18:44.489Z,5.08
2018-01-14T03:21:11.970Z,5.10
2018-01-14T03:23:39.635Z,5.10
2018-01-14T03:26:08.303Z,5.05
2018-01-14T03:28:36.003Z,5.09
2018-01-14T03:31:03.493Z,5.07
2018-01-14T03:33:30.972Z,5.06
2018-01-14T03:35:58.458Z,5.05
2018-01-14T03:38:25.939Z,5.00
2018-01-14T03:40:53.754Z,4.98
2018-01-14T03:43:21.221Z,4.98
2018-01-14T03:45:48.933Z,4.94
2018-01-14T03:48:16.435Z,4.90
2018-01-14T03:50:43.987Z,4.96
2018-01-14T03:53:11.462Z,4.91
2018-01-14T03:55:39.119Z,4.92
2018-01-14T03:58:06.591Z,4.93
2018-01-14T04:00:34.058Z,4.88
2018-01-14T04:03:01.636Z,4.84
2018-01-14T04:05:29.086Z,4.83
2018-01-14T04:07:56.613Z,4.86
2018-01-14T04:10:24.111Z,4.90
2018-01-14T04:12:51.643Z,4.83
2018-01-14T04:15:19.351Z,4.87
2018-01-14T04:17:46.852Z,4.74
2018-01-14T04:20:14.331Z,4.76
2018-01-14T04:22:41.826Z,4.77
2018-01-14T04:25:09.336Z,4.73
2018-01-14T04:27:36.864Z,4.74
2018-01-14T04:30:04.370Z,4.78
2018-01-14T04:32:31.866Z,4.76
2018-01-14T04:34:59.398Z,4.79
2018-01-14T04:37:26.967Z,4.78
2018-01-14T04:39:54.478Z,4.77
2018-01-14T04:42:21.974Z,4.78
2018-01-14T04:44:49.463Z,4.83
2018-01-14T04:47:16.995Z,4.86
2018-01-14T04:49:44.498Z,4.84
2018-01-14T04:52:11.982Z,4.83
2018-01-14T04:54:39.523Z,4.81
2018-01-14T04:57:07.036Z,4.79
2018-01-14T04:59:34.962Z,4.79
2018-01-14T05:02:02.458Z,4.83
2018-01-14T05:04:29.953Z,4.78
2018-01-14T05:06:57.478Z,4.84
2018-01-14T05:09:24.990Z,4.85
2018-01-14T05:11:52.495Z,4.84
2018-01-14T05:14:19.960Z,4.79
2018-01-14T05:16:47.479Z,4.81
2018-01-14T05:19:14.983Z,4.85
2018-01-14T05:21:42.631Z,4.82
2018-01-14T05:24:10.498Z,4.82
2018-01-14T05:26:38.003Z,4.76
2018-01-14T05:29:05.506Z,4.83
2018-01-14T05:31:33.016Z,4.77
2018-01-14T05:34:00.563Z,4.76
2018-01-14T05:36:28.115Z,4.75
2018-01-14T05:38:55.643Z,4.74
2018-01-14T05:41:23.179Z,4.75
2018-01-14T05:43:50.691Z,4.77
2018-01-14T05:46:18.232Z,4.77
2018-01-14T05:48:45.766Z,4.78
2018-01-14T05:51:13.235Z,4.69
2018-01-14T05:53:40.887Z,4.74
2018-01-14T05:56:08.363Z,4.70
2018-01-14T05:58:35.854Z,4.73
2018-01-14T06:01:03.381Z,4.74
2018-01-14T06:03:31.107Z,4.74
2018-01-14T06:05:58.649Z,4.83
2018-01-14T06:08:26.478Z,4.81
2018-01-14T06:10:53.966Z,4.75
2018-01-14T06:13:21.443Z,4.82
2018-01-14T06:15:48.941Z,4.78
2018-01-14T06:18:16.446Z,4.73
2018-01-14T06:20:44.002Z,4.58
2018-01-14T06:23:11.486Z,4.61
2018-01-14T06:25:39.010Z,4.59
2018-01-14T06:28:06.482Z,4.61
2018-01-14T06:30:33.974Z,4.58
2018-01-14T06:33:01.922Z,4.60
2018-01-14T06:35:29.411Z,4.64
2018-01-14T06:37:56.950Z,4.61
2018-01-14T06:40:24.443Z,4.63
2018-01-14T06:42:51.988Z,4.59
2018-01-14T06:45:19.502Z,4.59
2018-01-14T06:47:47.382Z,4.47
2018-01-14T06:50:14.855Z,4.52
2018-01-14T06:52:42.395Z,4.46
2018-01-14T06:55:09.878Z,4.46
2018-01-14T06:57:37.414Z,4.46
2018-01-14T07:00:04.899Z,4.45
2018-01-14T07:02:32.416Z,4.44
2018-01-14T07:04:59.934Z,4.40
2018-01-14T07:07:27.833Z,4.43
2018-01-14T07:09:55.322Z,4.37
2018-01-14T07:12:23.047Z,4.37
2018-01-14T07:14:50.542Z,4.39
2018-01-14T07:17:18.654Z,4.34
2018-01-14T07:19:46.133Z,4.35
2018-01-14T07:22:13.666Z,4.43
2018-01-14T07:24:41.150Z,4.43
2018-01-14T07:27:08.660Z,4.40
2018-01-14T07:29:36.145Z,4.40
2018-01-14T07:32:03.671Z,4.43
2018-01-14T07:34:31.135Z,4.41
2018-01-14T07:36:58.858Z,4.36
2018-01-14T07:39:26.725Z,4.35
2018-01-14T07:41:54.243Z,4.37
2018-01-14T07:44:21.742Z,4.34
2018-01-14T07:46:49.288Z,4.35
2018-01-14T07:49:16.775Z,4.43
2018-01-14T07:51:44.282Z,4.38
2018-01-14T07:54:11.787Z,4.34
2018-01-14T07:56:39.310Z,4.30
2018-01-14T07:59:06.811Z,4.35
2018-01-14T08:01:34.292Z,4.39
2018-01-14T08:04:02.043Z,4.34
2018-01-14T08:06:29.535Z,4.40
2018-01-14T08:08:57.024Z,4.43
2018-01-14T08:11:24.490Z,4.46
2018-01-14T08:13:51.990Z,4.49
2018-01-14T08:16:19.478Z,4.38
2018-01-14T08:18:47.202Z,4.52
2018-01-14T08:21:14.698Z,4.57
2018-01-14T08:23:42.222Z,4.69
2018-01-14T08:26:09.912Z,4.61
2018-01-14T08:28:37.434Z,4.57
2018-01-14T08:31:04.902Z,4.64
2018-01-14T08:33:32.418Z,4.67
2018-01-14T08:36:00.277Z,4.65
2018-01-14T08:38:27.735Z,4.75
2018-01-14T08:40:55.234Z,4.81
2018-01-14T08:43:22.731Z,4.84
2018-01-14T08:45:50.212Z,4.89
2018-01-14T08:48:17.699Z,4.87
2018-01-14T08:50:45.174Z,4.93
2018-01-14T08:53:12.675Z,4.92
2018-01-14T08:55:40.178Z,4.92
2018-01-14T08:58:07.708Z,4.93
2018-01-14T09:00:35.235Z,4.99
2018-01-14T09:03:02.812Z,5.00
2018-01-14T09:05:30.301Z,5.13
2018-01-14T09:07:57.798Z,5.21
2018-01-14T09:10:25.266Z,5.30
2018-01-14T09:12:52.978Z,5.31
2018-01-14T09:15:20.471Z,5.36
2018-01-14T09:17:48.119Z,5.45
2018-01-14T09:20:15.626Z,5.43
2018-01-14T09:22:43.098Z,5.46
2018-01-14T09:25:10.595Z,5.14
2018-01-14T09:27:38.063Z,5.20
2018-01-14T09:30:05.783Z,5.48
2018-01-14T09:32:33.263Z,5.45
2018-01-14T09:35:00.752Z,5.48
2018-01-14T09:37:28.226Z,5.57
2018-01-14T09:39:55.897Z,5.63
2018-01-14T09:42:23.376Z,5.34
2018-01-14T09:44:50.881Z,5.54
2018-01-14T09:47:18.351Z,5.54
2018-01-14T09:49:45.871Z,5.71
2018-01-14T09:52:13.334Z,5.46
2018-01-14T09:54:40.822Z,5.57
2018-01-14T09:57:08.286Z,5.55
2018-01-14T09:59:39.308Z,5.66
2018-01-14T10:02:06.789Z,5.61
2018-01-14T10:04:34.506Z,5.63
2018-01-14T10:07:02.032Z,5.89
2018-01-14T10:09:29.530Z,5.44
2018-01-14T10:11:57.261Z,5.41
2018-01-14T10:14:24.801Z,5.66
2018-01-14T10:16:52.283Z,5.67
2018-01-14T10:19:19.778Z,5.82
2018-01-14T10:21:47.254Z,5.81
2018-01-14T10:24:14.755Z,5.01
2018-01-14T10:26:42.233Z,5.46
2018-01-14T10:29:09.731Z,5.69
2018-01-14T10:31:37.721Z,5.81
2018-01-14T10:34:07.088Z,5.35
2018-01-14T10:36:34.608Z,5.61
2018-01-14T10:39:02.116Z,5.90
2018-01-14T10:41:29.644Z,5.90
2018-01-14T10:43:57.106Z,5.99
2018-01-14T10:46:25.462Z,6.08
2018-01-14T10:48:52.946Z,6.02
2018-01-14T10:51:20.666Z,5.93
2018-01-14T10:53:48.130Z,6.09
2018-01-14T10:56:15.622Z,5.71
2018-01-14T10:58:43.094Z,6.08
2018-01-14T11:01:11.772Z,6.23
2018-01-14T11:03:39.247Z,6.20
2018-01-14T11:06:07.274Z,6.18
2018-01-14T11:08:36.743Z,6.15
2018-01-14T11:11:04.226Z,6.29
2018-01-14T11:13:31.701Z,6.35
2018-01-14T11:15:59.278Z,5.47
2018-01-14T11:18:26.976Z,6.03
2018-01-14T11:20:54.480Z,5.88
2018-01-14T11:23:23.794Z,6.14
2018-01-14T11:25:52.434Z,6.31
2018-01-14T11:28:19.932Z,6.46
2018-01-14T11:30:47.430Z,6.37
2018-01-14T11:33:14.906Z,6.19
2018-01-14T11:35:42.403Z,6.24
2018-01-14T11:38:09.908Z,6.27
2018-01-14T11:40:37.406Z,6.36
2018-01-14T11:43:04.865Z,6.40
2018-01-14T11:45:32.580Z,6.54
2018-01-14T11:48:00.080Z,6.38
2018-01-14T11:50:27.606Z,6.59
2018-01-14T11:52:55.080Z,6.58
2018-01-14T11:55:22.807Z,6.61
2018-01-14T11:57:50.299Z,6.60
2018-01-14T12:00:18.179Z,6.80
2018-01-14T12:02:45.683Z,6.69
2018-01-14T12:05:13.151Z,6.72
2018-01-14T12:07:40.658Z,6.69
2018-01-14T12:10:08.174Z,6.69
2018-01-14T12:12:35.697Z,6.73
2018-01-14T12:15:03.178Z,6.67
2018-01-14T12:17:30.899Z,6.80
2018-01-14T12:19:58.407Z,6.69
2018-01-14T12:22:25.973Z,6.74
2018-01-14T12:24:53.507Z,6.72
2018-01-14T12:27:21.014Z,6.68
2018-01-14T12:30:02.620Z,6.72
2018-01-14T12:32:41.867Z,6.68
2018-01-14T12:35:09.376Z,6.52
2018-01-14T12:37:36.888Z,6.18
2018-01-14T12:40:04.350Z,6.40
2018-01-14T12:42:31.918Z,6.21
2018-01-14T12:44:59.691Z,6.12
2018-01-14T12:47:27.207Z,5.92
2018-01-14T12:49:54.722Z,6.04
2018-01-14T12:52:22.280Z,6.15
2018-01-14T12:54:49.755Z,6.01
2018-01-14T12:57:17.265Z,6.05
2018-01-14T12:59:44.771Z,6.23
2018-01-14T13:02:12.319Z,5.91
2018-01-14T13:04:39.773Z,5.43
2018-01-14T13:07:07.661Z,5.69
2018-01-14T13:09:35.444Z,5.78
2018-01-14T13:12:02.938Z,6.00
2018-01-14T13:14:30.479Z,6.13
2018-01-14T13:16:58.332Z,5.97
2018-01-14T13:19:25.872Z,5.99
2018-01-14T13:21:53.461Z,5.56
2018-01-14T13:24:20.988Z,5.87
2018-01-14T13:26:48.479Z,6.02
2018-01-14T13:29:17.595Z,5.94
2018-01-14T13:31:45.174Z,5.63
2018-01-14T13:34:12.695Z,5.79
2018-01-14T13:36:40.199Z,5.93
2018-01-14T13:39:07.713Z,5.91
2018-01-14T13:41:35.286Z,5.93
2018-01-14T13:44:02.818Z,5.77
2018-01-14T13:46:30.356Z,5.62
2018-01-14T13:48:57.949Z,5.47
2018-01-14T13:51:33.790Z,5.59
2018-01-14T13:54:01.338Z,5.51
2018-01-14T13:56:28.846Z,5.57
2018-01-14T13:58:56.445Z,5.69
2018-01-14T14:01:23.939Z,5.79
2018-01-14T14:03:51.451Z,5.71
2018-01-14T14:06:18.918Z,5.49
2018-01-14T14:08:46.426Z,5.66
2018-01-14T14:11:13.929Z,5.19
2018-01-14T14:13:41.451Z,5.04
2018-01-14T14:16:08.946Z,5.25
2018-01-14T14:18:36.450Z,5.41
2018-01-14T14:21:03.946Z,5.49
2018-01-14T14:23:31.788Z,5.59
2018-01-14T14:25:59.304Z,5.65
2018-01-14T14:28:26.834Z,5.46
2018-01-14T14:30:54.334Z,5.36
2018-01-14T14:33:22.582Z,5.07
2018-01-14T14:35:50.282Z,5.22
2018-01-14T14:38:17.788Z,5.26
2018-01-14T14:40:45.262Z,5.30
2018-01-14T14:43:12.768Z,5.27
2018-01-14T14:45:40.487Z,5.06
2018-01-14T14:48:07.974Z,5.07
2018-01-14T14:50:35.462Z,5.24
2018-01-14T14:53:02.955Z,5.35
2018-01-14T14:55:30.435Z,5.33
2018-01-14T14:57:57.907Z,5.10
2018-01-14T15:00:25.428Z,5.19
2018-01-14T15:02:52.913Z,5.16
2018-01-14T15:05:20.397Z,5.16
2018-01-14T15:07:47.871Z,5.03
2018-01-14T15:10:15.591Z,5.06
2018-01-14T15:12:43.087Z,5.12
2018-01-14T15:15:10.611Z,5.11
2018-01-14T15:17:38.095Z,5.00
2018-01-14T15:20:05.661Z,4.89
2018-01-14T15:22:33.182Z,4.93
2018-01-14T15:25:00.718Z,4.93
2018-01-14T15:27:28.427Z,4.72
2018-01-14T15:29:55.920Z,4.75
2018-01-14T15:32:23.847Z,4.58
2018-01-14T15:34:51.367Z,4.65
2018-01-14T15:37:18.883Z,4.62
2018-01-14T15:39:46.685Z,4.62
2018-01-14T15:42:14.154Z,4.54
2018-01-14T15:44:41.642Z,4.61
2018-01-14T15:47:09.503Z,4.55
2018-01-14T15:49:37.018Z,4.55
2018-01-14T15:52:04.526Z,4.56
2018-01-14T15:54:32.027Z,4.58
2018-01-14T15:56:59.538Z,4.57
2018-01-14T15:59:27.056Z,4.57
2018-01-14T16:01:54.730Z,4.59
2018-01-14T16:04:22.715Z,4.57
2018-01-14T16:06:50.217Z,4.53
2018-01-14T16:09:17.711Z,4.54
2018-01-14T16:11:45.234Z,4.49
2018-01-14T16:14:12.698Z,4.55
2018-01-14T16:16:40.186Z,4.52
2018-01-14T16:19:07.741Z,4.47
2018-01-14T16:21:36.424Z,4.35
2018-01-14T16:24:03.938Z,4.38
2018-01-14T16:26:31.455Z,4.41
2018-01-14T16:28:59.146Z,4.41
2018-01-14T16:31:26.642Z,4.44
2018-01-14T16:33:54.142Z,4.38
2018-01-14T16:36:21.675Z,4.29
2018-01-14T16:38:49.151Z,4.29
2018-01-14T16:41:16.643Z,4.29
2018-01-14T16:43:44.616Z,4.35
2018-01-14T16:46:12.160Z,4.39
2018-01-14T16:48:39.715Z,4.45
2018-01-14T16:51:07.267Z,4.40
2018-01-14T16:53:34.727Z,4.39
2018-01-14T16:56:02.239Z,4.31
2018-01-14T16:58:29.942Z,4.35
2018-01-14T17:00:57.430Z,4.33
2018-01-14T17:03:24.903Z,4.34
2018-01-14T17:05:52.399Z,4.32
2018-01-14T17:08:19.882Z,4.35
2018-01-14T17:10:47.450Z,4.34
2018-01-14T17:13:14.924Z,4.35
2018-01-14T17:15:42.465Z,4.40
2018-01-14T17:18:09.994Z,4.40
2018-01-14T17:20:37.498Z,4.38
2018-01-14T17:23:04.990Z,4.37
2018-01-14T17:25:32.726Z,4.33
2018-01-14T17:28:00.640Z,4.32
2018-01-14T17:30:28.115Z,4.34
2018-01-14T17:32:55.607Z,4.32
2018-01-14T17:35:23.119Z,4.33
2018-01-14T17:37:50.707Z,4.34
2018-01-14T17:40:18.225Z,4.37
2018-01-14T17:42:46.030Z,4.36
2018-01-14T17:45:20.039Z,4.34
2018-01-14T17:47:47.562Z,4.33
2018-01-14T17:50:15.282Z,4.32
2018-01-14T17:52:42.836Z,4.34
2018-01-14T17:55:10.376Z,4.34
2018-01-14T17:57:38.091Z,4.31
2018-01-14T18:00:05.610Z,4.29
2018-01-14T18:02:33.095Z,4.23
2018-01-14T18:05:00.564Z,4.25
2018-01-14T18:07:28.087Z,4.24
2018-01-14T18:09:55.566Z,4.25
2018-01-14T18:12:23.108Z,4.19
2018-01-14T18:14:50.603Z,4.12
2018-01-14T18:17:26.819Z,4.11
2018-01-14T18:19:54.314Z,4.04
2018-01-14T18:22:21.836Z,4.01
2018-01-14T18:24:49.343Z,3.95
2018-01-14T18:27:16.887Z,3.94
2018-01-14T18:29:44.480Z,3.88
2018-01-14T18:32:11.898Z,3.86
2018-01-14T18:34:39.389Z,3.79
2018-01-14T18:37:06.879Z,3.72
2018-01-14T18:39:34.371Z,3.71
2018-01-14T18:42:02.087Z,3.69
2018-01-14T18:44:30.502Z,3.58
2018-01-14T18:46:58.434Z,3.48
2018-01-14T18:49:25.930Z,3.35
2018-01-14T18:51:56.954Z,3.17
2018-01-14T18:54:24.441Z,2.99
2018-01-14T18:56:51.969Z,2.87
2018-01-14T18:59:19.458Z,2.72
2018-01-14T19:01:47.364Z,2.57
2018-01-14T19:04:14.865Z,2.42
2018-01-14T19:06:42.402Z,2.29
2018-01-14T19:09:10.206Z,2.17
2018-01-14T19:11:37.726Z,2.07
2018-01-14T19:14:05.275Z,1.97
2018-01-14T19:16:32.850Z,1.89
2018-01-14T19:19:00.401Z,1.85
2018-01-14T19:21:27.911Z,1.78
2018-01-14T19:23:55.425Z,1.79
2018-01-14T19:26:23.194Z,1.73
2018-01-14T19:29:03.292Z,1.64
2018-01-14T19:31:45.733Z,1.64
2018-01-14T19:34:13.251Z,1.75
2018-01-14T19:36:40.803Z,1.76
2018-01-14T19:39:08.330Z,1.72
2018-01-14T19:41:35.798Z,1.72
2018-01-14T19:44:07.516Z,1.65
2018-01-14T19:46:34.999Z,1.54
2018-01-14T19:49:02.479Z,1.48
2018-01-14T19:51:29.950Z,1.43
2018-01-14T19:53:57.668Z,1.36
2018-01-14T19:56:25.158Z,1.34
2018-01-14T19:58:52.651Z,1.31
2018-01-14T20:01:20.122Z,1.30
2018-01-14T20:03:47.635Z,1.24
2018-01-14T20:06:15.106Z,1.18
2018-01-14T20:11:35.888Z,1.05
2018-01-14T20:14:03.549Z,1.01
2018-01-14T20:16:32.038Z,0.92
2018-01-14T20:18:59.532Z,0.96
2018-01-14T20:21:27.030Z,0.91
2018-01-14T20:23:54.511Z,0.89
2018-01-14T20:26:21.981Z,0.86
2018-01-14T20:28:49.463Z,0.80
2018-01-14T20:31:16.923Z,0.80
2018-01-14T20:33:44.400Z,0.83
2018-01-14T20:36:11.862Z,1.03
2018-01-14T20:38:39.391Z,1.08
2018-01-14T20:41:06.831Z,1.09
2018-01-14T20:43:34.324Z,1.16
2018-01-14T20:46:01.800Z,1.26
2018-01-14T20:48:29.284Z,1.20
2018-01-14T20:50:56.742Z,1.21
2018-01-14T20:53:24.227Z,1.20
2018-01-14T20:55:51.698Z,1.08
2018-01-14T20:58:19.178Z,1.01
2018-01-14T21:00:46.671Z,0.91
2018-01-14T21:03:14.138Z,0.84
2018-01-14T21:05:41.694Z,0.84
2018-01-14T21:08:09.162Z,0.78
2018-01-14T21:10:36.668Z,0.73
2018-01-14T21:13:04.126Z,0.74
2018-01-14T21:15:31.618Z,0.65
2018-01-14T21:17:59.083Z,0.68
2018-01-14T21:20:26.571Z,0.62
2018-01-14T21:22:54.038Z,0.64
2018-01-14T21:25:21.528Z,0.64
2018-01-14T21:27:49.000Z,0.60
2018-01-14T21:30:16.488Z,0.59
2018-01-14T21:32:43.957Z,0.59
2018-01-14T21:35:11.439Z,0.63
2018-01-14T21:37:38.945Z,0.65
2018-01-14T21:40:06.434Z,0.68
2018-01-14T21:42:33.898Z,0.82
2018-01-14T21:45:01.387Z,1.13
2018-01-14T21:47:28.843Z,1.24
2018-01-14T21:49:56.336Z,1.38
2018-01-14T21:52:23.807Z,1.51
2018-01-14T21:54:51.290Z,1.64
2018-01-14T21:57:18.754Z,1.65
2018-01-14T21:59:46.238Z,1.66
2018-01-14T22:02:13.714Z,1.72
2018-01-14T22:04:41.235Z,1.84
2018-01-14T22:07:08.702Z,1.79
2018-01-14T22:09:36.199Z,1.74
2018-01-14T22:12:03.672Z,1.60
2018-01-14T22:14:31.155Z,1.45
2018-01-14T22:16:58.623Z,1.28
2018-01-14T22:19:26.098Z,1.12
2018-01-14T22:21:53.607Z,1.00
2018-01-14T22:24:21.062Z,0.90
2018-01-14T22:26:48.548Z,0.88
2018-01-14T22:29:16.015Z,0.80
2018-01-14T22:31:43.592Z,0.69
2018-01-14T22:34:11.081Z,0.66
2018-01-14T22:36:38.567Z,0.82
2018-01-14T22:39:06.035Z,0.77
2018-01-14T22:41:33.495Z,0.81
2018-01-14T22:44:00.979Z,0.82
2018-01-14T22:46:28.439Z,0.75
2018-01-14T22:48:55.922Z,0.66
2018-01-14T22:51:23.392Z,0.60
2018-01-14T22:53:50.871Z,0.62
2018-01-14T22:56:18.404Z,0.68
2018-01-14T22:58:45.900Z,0.87
2018-01-14T23:01:13.360Z,0.73
2018-01-14T23:03:40.839Z,0.67
2018-01-14T23:06:08.299Z,0.64
2018-01-14T23:08:35.762Z,0.69
2018-01-14T23:11:03.252Z,0.65
2018-01-14T23:13:30.710Z,0.64
2018-01-14T23:15:58.194Z,0.62
2018-01-14T23:18:25.658Z,0.58
2018-01-14T23:20:53.191Z,0.57
2018-01-14T23:23:20.656Z,0.60
2018-01-14T23:25:48.157Z,0.59
2018-01-14T23:28:15.622Z,0.57
2018-01-14T23:30:43.269Z,0.59
2018-01-14T23:33:10.734Z,0.60
2018-01-14T23:35:38.190Z,0.53
2018-01-14T23:38:05.713Z,0.52
2018-01-14T23:40:33.197Z,0.53
2018-01-14T23:43:00.683Z,0.59
2018-01-14T23:45:28.151Z,0.58
2018-01-14T23:47:55.631Z,0.52
2018-01-14T23:50:23.094Z,0.48
2018-01-14T23:52:50.574Z,0.35
2018-01-14T23:55:18.039Z,0.26
2018-01-14T23:57:45.541Z,0.21
